createdAt,value
2019-04-28T00:00:21.484Z,25.38
2019-04-28T00:02:50.771Z,25.35
2019-04-28T00:05:19.003Z,25.36
2019-04-28T00:07:46.981Z,25.36
2019-04-28T00:10:14.941Z,25.35
2019-04-28T00:12:42.901Z,25.37
2019-04-28T00:15:10.960Z,25.36
2019-04-28T00:17:39.254Z,25.38
2019-04-28T00:20:10.682Z,25.33
2019-04-28T00:22:46.444Z,25.33
2019-04-28T00:25:27.284Z,25.28
2019-04-28T00:27:55.322Z,25.29
2019-04-28T00:30:23.634Z,25.28
2019-04-28T00:32:51.886Z,25.26
2019-04-28T00:35:21.727Z,25.31
2019-04-28T00:37:49.514Z,25.26
2019-04-28T00:40:17.515Z,25.26
2019-04-28T00:42:45.508Z,25.28
2019-04-28T00:45:13.951Z,25.24
2019-04-28T00:47:42.829Z,25.28
2019-04-28T00:50:11.727Z,25.28
2019-04-28T00:52:41.758Z,25.28
2019-04-28T00:55:11.048Z,25.25
2019-04-28T00:57:40.855Z,25.23
2019-04-28T01:00:09.030Z,25.23
2019-04-28T01:02:41.975Z,25.24
2019-04-28T01:05:11.334Z,25.22
2019-04-28T01:07:41.323Z,25.21
2019-04-28T01:10:09.220Z,25.22
2019-04-28T01:12:37.464Z,25.20
2019-04-28T01:15:06.468Z,25.14
2019-04-28T01:17:42.969Z,25.18
2019-04-28T01:20:12.015Z,25.20
2019-04-28T01:22:40.254Z,25.21
2019-04-28T01:25:08.227Z,25.20
2019-04-28T01:27:50.500Z,25.14
2019-04-28T01:30:27.535Z,25.15
2019-04-28T01:33:01.178Z,25.08
2019-04-28T01:35:29.489Z,25.11
2019-04-28T01:37:57.634Z,25.13
2019-04-28T01:40:25.385Z,25.08
2019-04-28T01:42:53.407Z,25.15
2019-04-28T01:45:21.398Z,25.11
2019-04-28T01:47:50.401Z,25.19
2019-04-28T01:50:20.491Z,25.13
2019-04-28T01:52:49.696Z,25.15
2019-04-28T01:55:19.808Z,25.13
2019-04-28T01:57:47.555Z,25.10
2019-04-28T02:00:24.569Z,25.15
2019-04-28T02:02:45.618Z,25.12
2019-04-28T02:05:13.668Z,25.14
2019-04-28T02:07:41.920Z,25.17
2019-04-28T02:10:10.275Z,25.14
2019-04-28T02:12:39.814Z,25.10
2019-04-28T02:15:07.696Z,25.12
2019-04-28T02:17:35.552Z,25.09
2019-04-28T02:20:03.568Z,25.08
2019-04-28T02:22:50.538Z,25.10
2019-04-28T02:25:19.694Z,25.09
2019-04-28T02:27:49.873Z,25.10
2019-04-28T02:30:20.242Z,25.08
2019-04-28T02:32:47.929Z,25.04
2019-04-28T02:35:15.805Z,25.08
2019-04-28T02:37:43.666Z,25.08
2019-04-28T02:40:11.450Z,25.06
2019-04-28T02:42:40.999Z,25.03
2019-04-28T02:45:11.689Z,25.02
2019-04-28T02:47:41.638Z,25.06
2019-04-28T02:50:21.471Z,25.03
2019-04-28T02:53:13.016Z,25.03
2019-04-28T02:55:41.331Z,25.01
2019-04-28T02:58:10.777Z,24.98
2019-04-28T03:00:41.212Z,24.96
2019-04-28T03:03:11.031Z,24.97
2019-04-28T03:05:41.223Z,24.98
2019-04-28T03:08:11.040Z,24.95
2019-04-28T03:10:40.810Z,24.98
2019-04-28T03:13:10.738Z,24.99
2019-04-28T03:15:37.410Z,24.94
2019-04-28T03:18:05.376Z,24.93
2019-04-28T03:20:33.549Z,24.94
2019-04-28T03:23:01.571Z,24.94
2019-04-28T03:25:47.266Z,24.92
2019-04-28T03:28:51.327Z,24.92
2019-04-28T03:32:03.736Z,24.91
2019-04-28T03:34:13.088Z,24.92
2019-04-28T03:36:41.122Z,24.88
2019-04-28T03:39:11.028Z,24.87
2019-04-28T03:41:40.516Z,24.85
2019-04-28T03:44:11.270Z,24.87
2019-04-28T03:46:44.289Z,24.88
2019-04-28T03:49:31.177Z,24.87
2019-04-28T03:52:00.425Z,24.91
2019-04-28T03:54:30.332Z,24.88
2019-04-28T03:56:57.911Z,24.85
2019-04-28T03:59:26.154Z,24.80
2019-04-28T04:01:59.405Z,24.81
2019-04-28T04:04:24.052Z,24.80
2019-04-28T04:06:52.047Z,24.83
2019-04-28T04:09:21.591Z,24.84
2019-04-28T04:12:11.976Z,24.84
2019-04-28T04:14:47.296Z,24.84
2019-04-28T04:17:30.957Z,24.82
2019-04-28T04:20:01.586Z,24.80
2019-04-28T04:22:28.227Z,24.86
2019-04-28T04:24:56.216Z,24.81
2019-04-28T04:27:24.185Z,24.84
2019-04-28T04:29:52.055Z,24.84
2019-04-28T04:32:26.277Z,24.83
2019-04-28T04:34:50.670Z,24.79
2019-04-28T04:37:20.517Z,24.82
2019-04-28T04:39:51.283Z,24.79
2019-04-28T04:42:20.410Z,24.75
2019-04-28T04:44:49.979Z,24.78
2019-04-28T04:47:17.475Z,24.77
2019-04-28T04:49:45.264Z,24.74
2019-04-28T04:52:13.319Z,24.77
2019-04-28T04:54:41.289Z,24.75
2019-04-28T04:57:11.110Z,24.74
2019-04-28T04:59:40.181Z,24.74
2019-04-28T05:02:33.397Z,24.74
2019-04-28T05:05:12.942Z,24.76
2019-04-28T05:07:40.710Z,24.74
2019-04-28T05:10:10.541Z,24.74
2019-04-28T05:12:40.366Z,24.73
2019-04-28T05:15:10.362Z,24.77
2019-04-28T05:17:38.004Z,24.83
2019-04-28T05:20:05.924Z,24.78
2019-04-28T05:22:37.057Z,24.79
2019-04-28T05:25:10.316Z,24.80
2019-04-28T05:27:39.894Z,24.79
2019-04-28T05:30:07.989Z,24.82
2019-04-28T05:32:43.216Z,24.82
2019-04-28T05:35:05.574Z,24.82
2019-04-28T05:37:33.603Z,24.83
2019-04-28T05:40:01.590Z,24.83
2019-04-28T05:42:30.246Z,24.86
2019-04-28T05:44:59.793Z,24.85
2019-04-28T05:47:27.897Z,24.92
2019-04-28T05:50:20.244Z,24.88
2019-04-28T05:53:07.108Z,24.90
2019-04-28T05:55:54.059Z,24.91
2019-04-28T05:58:32.664Z,24.97
2019-04-28T06:01:22.037Z,24.89
2019-04-28T06:03:49.951Z,24.85
2019-04-28T06:06:20.459Z,24.83
2019-04-28T06:09:00.210Z,24.86
2019-04-28T06:11:35.569Z,24.82
2019-04-28T06:14:03.431Z,24.78
2019-04-28T06:16:31.632Z,24.77
2019-04-28T06:19:00.151Z,24.76
2019-04-28T06:21:28.130Z,24.82
2019-04-28T06:23:56.088Z,24.80
2019-04-28T06:26:23.948Z,24.76
2019-04-28T06:28:52.416Z,24.76
2019-04-28T06:31:20.415Z,24.76
2019-04-28T06:33:48.306Z,24.74
2019-04-28T06:36:16.341Z,24.73
2019-04-28T06:38:44.220Z,24.75
2019-04-28T06:41:12.172Z,24.81
2019-04-28T06:43:40.094Z,24.80
2019-04-28T06:46:08.084Z,24.86
2019-04-28T06:48:36.134Z,24.87
2019-04-28T06:51:04.020Z,24.96
2019-04-28T06:53:32.027Z,24.92
2019-04-28T06:55:59.892Z,24.88
2019-04-28T06:58:27.882Z,24.86
2019-04-28T07:00:55.681Z,24.89
2019-04-28T07:03:23.545Z,24.83
2019-04-28T07:05:51.434Z,24.91
2019-04-28T07:08:19.691Z,24.91
2019-04-28T07:10:47.975Z,24.35
2019-04-28T07:13:15.858Z,24.86
2019-04-28T07:15:43.748Z,24.88
2019-04-28T07:18:11.548Z,24.87
2019-04-28T07:20:54.432Z,24.86
2019-04-28T07:23:22.251Z,24.90
2019-04-28T07:25:50.036Z,25.16
2019-04-28T07:28:17.910Z,25.22
2019-04-28T07:30:46.036Z,25.23
2019-04-28T07:33:13.823Z,25.09
2019-04-28T07:35:41.582Z,25.01
2019-04-28T07:38:09.552Z,25.01
2019-04-28T07:40:37.322Z,25.10
2019-04-28T07:43:05.105Z,25.03
2019-04-28T07:45:33.101Z,24.98
2019-04-28T07:48:00.865Z,24.91
2019-04-28T07:50:28.630Z,25.01
2019-04-28T07:53:05.974Z,25.16
2019-04-28T07:55:34.172Z,25.18
2019-04-28T07:58:02.058Z,25.13
2019-04-28T08:00:30.713Z,25.22
2019-04-28T08:02:58.620Z,25.30
2019-04-28T08:05:26.514Z,25.30
2019-04-28T08:07:54.389Z,25.06
2019-04-28T08:10:22.258Z,25.06
2019-04-28T08:12:50.109Z,25.25
2019-04-28T08:15:17.985Z,25.33
2019-04-28T08:17:46.035Z,25.22
2019-04-28T08:20:14.527Z,25.14
2019-04-28T08:22:42.414Z,25.09
2019-04-28T08:25:12.035Z,25.02
2019-04-28T08:27:39.912Z,25.00
2019-04-28T08:30:07.929Z,24.97
2019-04-28T08:33:07.128Z,25.12
2019-04-28T08:35:35.040Z,25.03
2019-04-28T08:38:02.922Z,24.99
2019-04-28T08:40:30.910Z,24.98
2019-04-28T08:42:58.921Z,25.21
2019-04-28T08:45:26.798Z,25.12
2019-04-28T08:47:54.683Z,25.20
2019-04-28T08:50:22.572Z,25.38
2019-04-28T08:52:50.449Z,25.39
2019-04-28T08:55:18.354Z,25.43
2019-04-28T08:57:46.747Z,25.46
2019-04-28T09:00:16.260Z,25.29
2019-04-28T09:02:44.049Z,25.20
2019-04-28T09:05:12.043Z,25.18
2019-04-28T09:07:39.914Z,25.13
2019-04-28T09:10:07.838Z,25.14
2019-04-28T09:12:35.726Z,25.12
2019-04-28T09:15:03.889Z,25.27
2019-04-28T09:17:31.924Z,25.28
2019-04-28T09:19:59.938Z,25.26
2019-04-28T09:22:27.940Z,25.31
2019-04-28T09:24:55.847Z,25.20
2019-04-28T09:27:23.846Z,25.33
2019-04-28T09:29:51.636Z,25.40
2019-04-28T09:32:19.464Z,25.46
2019-04-28T09:34:47.483Z,25.49
2019-04-28T09:37:15.439Z,25.44
2019-04-28T09:40:07.140Z,25.32
2019-04-28T09:42:44.981Z,25.32
2019-04-28T09:45:17.663Z,25.24
2019-04-28T09:47:45.453Z,25.20
2019-04-28T09:50:13.440Z,25.19
2019-04-28T09:52:41.220Z,24.68
2019-04-28T09:55:09.201Z,25.21
2019-04-28T09:57:36.986Z,25.19
2019-04-28T10:00:05.119Z,25.20
2019-04-28T10:02:33.106Z,25.20
2019-04-28T10:05:01.114Z,25.27
2019-04-28T10:07:29.171Z,25.37
2019-04-28T10:09:57.070Z,25.44
2019-04-28T10:12:27.183Z,25.48
2019-04-28T10:14:54.372Z,25.42
2019-04-28T10:17:22.250Z,25.34
2019-04-28T10:19:50.027Z,25.31
2019-04-28T10:22:18.008Z,25.28
2019-04-28T10:24:45.997Z,25.27
2019-04-28T10:27:13.982Z,25.27
2019-04-28T10:29:41.886Z,25.25
2019-04-28T10:32:09.787Z,25.25
2019-04-28T10:34:37.658Z,25.27
2019-04-28T10:37:05.545Z,25.28
2019-04-28T10:39:46.212Z,25.33
2019-04-28T10:42:14.105Z,25.40
2019-04-28T10:44:44.046Z,25.47
2019-04-28T10:47:12.594Z,25.41
2019-04-28T10:49:40.686Z,25.37
2019-04-28T10:52:08.672Z,25.42
2019-04-28T10:54:36.661Z,25.54
2019-04-28T10:57:04.508Z,25.57
2019-04-28T10:59:32.757Z,25.59
2019-04-28T11:02:00.674Z,25.61
2019-04-28T11:04:49.181Z,25.68
2019-04-28T11:07:17.474Z,25.70
2019-04-28T11:09:50.721Z,25.67
2019-04-28T11:12:23.918Z,25.55
2019-04-28T11:14:51.817Z,25.51
2019-04-28T11:17:20.556Z,25.52
2019-04-28T11:19:48.441Z,25.58
2019-04-28T11:22:16.398Z,25.64
2019-04-28T11:24:44.346Z,25.68
2019-04-28T11:27:12.275Z,25.66
2019-04-28T11:29:40.075Z,25.69
2019-04-28T11:32:08.056Z,25.71
2019-04-28T11:34:42.598Z,25.70
2019-04-28T11:37:10.487Z,25.71
2019-04-28T11:39:39.909Z,25.75
2019-04-28T11:42:08.226Z,25.74
2019-04-28T11:44:36.115Z,25.73
2019-04-28T11:47:06.724Z,25.64
2019-04-28T11:49:34.713Z,25.66
2019-04-28T11:52:02.843Z,25.77
2019-04-28T11:54:30.732Z,25.76
2019-04-28T11:56:58.707Z,25.77
2019-04-28T11:59:26.832Z,25.68
2019-04-28T12:01:54.934Z,25.74
2019-04-28T12:04:23.112Z,25.87
2019-04-28T12:06:51.198Z,25.34
2019-04-28T12:09:33.685Z,25.78
2019-04-28T12:12:02.231Z,25.72
2019-04-28T12:14:55.163Z,25.80
2019-04-28T12:17:46.082Z,25.92
2019-04-28T12:20:19.587Z,25.83
2019-04-28T12:22:47.630Z,25.77
2019-04-28T12:25:15.532Z,25.78
2019-04-28T12:27:43.590Z,25.87
2019-04-28T12:30:11.801Z,25.86
2019-04-28T12:32:39.837Z,25.84
2019-04-28T12:35:08.189Z,25.90
2019-04-28T12:37:36.188Z,25.93
2019-04-28T12:40:04.678Z,25.82
2019-04-28T12:42:32.739Z,25.83
2019-04-28T12:45:00.726Z,25.87
2019-04-28T12:47:28.716Z,25.97
2019-04-28T12:50:01.289Z,25.97
2019-04-28T12:52:29.266Z,26.01
2019-04-28T12:54:57.192Z,26.01
2019-04-28T12:57:26.147Z,25.97
2019-04-28T13:00:15.147Z,25.96
2019-04-28T13:02:51.005Z,26.00
2019-04-28T13:05:19.602Z,26.03
2019-04-28T13:07:47.573Z,26.08
2019-04-28T13:10:15.635Z,26.10
2019-04-28T13:12:43.586Z,26.11
2019-04-28T13:15:11.659Z,26.14
2019-04-28T13:17:39.664Z,26.16
2019-04-28T13:20:08.043Z,26.15
2019-04-28T13:22:36.021Z,26.10
2019-04-28T13:25:03.898Z,26.08
2019-04-28T13:27:31.933Z,26.04
2019-04-28T13:29:59.918Z,26.02
2019-04-28T13:32:28.040Z,26.00
2019-04-28T13:34:56.062Z,26.00
2019-04-28T13:37:24.016Z,25.99
2019-04-28T13:39:58.456Z,25.98
2019-04-28T13:42:26.580Z,25.98
2019-04-28T13:44:58.742Z,25.97
2019-04-28T13:47:26.893Z,25.93
2019-04-28T13:50:02.689Z,25.91
2019-04-28T13:52:30.952Z,25.92
2019-04-28T13:55:10.374Z,25.91
2019-04-28T13:57:38.269Z,25.95
2019-04-28T14:00:08.229Z,25.54
2019-04-28T14:02:49.096Z,26.09
2019-04-28T14:05:51.111Z,26.03
2019-04-28T14:08:19.156Z,26.00
2019-04-28T14:10:47.112Z,26.10
2019-04-28T14:13:15.301Z,26.15
2019-04-28T14:15:43.308Z,26.10
2019-04-28T14:18:11.237Z,26.10
2019-04-28T14:20:39.260Z,26.10
2019-04-28T14:23:07.327Z,26.06
2019-04-28T14:25:35.436Z,26.01
2019-04-28T14:28:03.358Z,26.00
2019-04-28T14:30:31.369Z,25.97
2019-04-28T14:32:59.756Z,26.03
2019-04-28T14:35:27.980Z,25.98
2019-04-28T14:37:57.250Z,25.93
2019-04-28T14:40:25.126Z,25.90
2019-04-28T14:42:53.113Z,25.89
2019-04-28T14:45:21.400Z,25.89
2019-04-28T14:47:49.638Z,25.88
2019-04-28T14:50:17.710Z,25.90
2019-04-28T14:52:45.568Z,25.90
2019-04-28T14:55:13.938Z,25.85
2019-04-28T14:57:41.924Z,25.83
2019-04-28T15:00:11.706Z,25.83
2019-04-28T15:02:51.482Z,25.83
2019-04-28T15:05:39.228Z,25.80
2019-04-28T15:08:25.148Z,25.78
2019-04-28T15:10:58.503Z,25.81
2019-04-28T15:13:27.100Z,25.79
2019-04-28T15:15:55.106Z,25.80
2019-04-28T15:18:23.234Z,25.76
2019-04-28T15:20:51.362Z,25.77
2019-04-28T15:23:19.348Z,25.75
2019-04-28T15:25:47.260Z,25.74
2019-04-28T15:28:15.069Z,25.74
2019-04-28T15:30:42.932Z,25.73
2019-04-28T15:33:11.074Z,25.72
2019-04-28T15:35:39.058Z,25.72
2019-04-28T15:38:07.083Z,25.70
2019-04-28T15:40:34.920Z,25.71
2019-04-28T15:43:03.148Z,25.69
2019-04-28T15:45:31.021Z,25.70
2019-04-28T15:47:58.901Z,25.69
2019-04-28T15:50:26.993Z,25.69
2019-04-28T15:52:54.989Z,25.67
2019-04-28T15:55:29.246Z,25.68
2019-04-28T15:57:57.077Z,25.64
2019-04-28T16:00:26.405Z,25.64
2019-04-28T16:02:54.413Z,25.64
2019-04-28T16:05:23.664Z,25.54
2019-04-28T16:07:51.514Z,25.53
2019-04-28T16:10:19.817Z,25.52
2019-04-28T16:12:47.707Z,25.50
2019-04-28T16:15:15.632Z,25.50
2019-04-28T16:17:43.582Z,25.48
2019-04-28T16:20:11.659Z,25.47
2019-04-28T16:22:40.018Z,25.54
2019-04-28T16:25:08.109Z,25.48
2019-04-28T16:27:35.920Z,24.49
2019-04-28T16:30:04.509Z,23.06
2019-04-28T16:32:32.398Z,23.19
2019-04-28T16:35:00.381Z,22.12
2019-04-28T16:37:38.660Z,21.76
2019-04-28T16:39:57.886Z,22.06
2019-04-28T16:42:27.274Z,21.57
2019-04-28T16:44:58.185Z,21.76
2019-04-28T16:47:25.972Z,21.72
2019-04-28T16:49:53.948Z,21.75
2019-04-28T16:52:21.746Z,21.78
2019-04-28T16:55:09.338Z,21.17
2019-04-28T16:57:43.790Z,21.15
2019-04-28T17:00:19.537Z,21.00
2019-04-28T17:02:50.088Z,20.87
2019-04-28T17:05:18.420Z,20.69
2019-04-28T17:07:53.290Z,20.81
2019-04-28T17:10:15.926Z,20.70
2019-04-28T17:12:43.801Z,20.85
2019-04-28T17:15:11.778Z,20.64
2019-04-28T17:17:39.844Z,20.69
2019-04-28T17:20:08.101Z,20.64
2019-04-28T17:22:35.880Z,20.27
2019-04-28T17:25:04.109Z,20.24
2019-04-28T17:27:31.988Z,20.14
2019-04-28T17:29:59.763Z,20.19
2019-04-28T17:32:27.724Z,20.23
2019-04-28T17:34:55.615Z,20.08
2019-04-28T17:37:23.844Z,20.07
2019-04-28T17:39:51.983Z,19.80
2019-04-28T17:42:19.876Z,19.78
2019-04-28T17:44:47.777Z,19.69
2019-04-28T17:47:17.203Z,19.62
2019-04-28T17:49:45.069Z,19.70
2019-04-28T17:52:14.005Z,20.02
2019-04-28T17:54:42.001Z,19.92
2019-04-28T17:57:09.898Z,19.83
2019-04-28T17:59:37.866Z,20.19
2019-04-28T18:02:23.510Z,19.96
2019-04-28T18:05:13.262Z,20.01
2019-04-28T18:07:41.342Z,19.97
2019-04-28T18:10:09.582Z,19.46
2019-04-28T18:12:37.441Z,20.41
2019-04-28T18:15:35.297Z,21.12
2019-04-28T18:18:28.537Z,21.57
2019-04-28T18:20:56.530Z,21.87
2019-04-28T18:23:24.446Z,22.04
2019-04-28T18:25:52.308Z,22.15
2019-04-28T18:28:20.328Z,22.23
2019-04-28T18:30:55.767Z,22.33
2019-04-28T18:33:48.564Z,22.38
2019-04-28T18:36:21.728Z,22.43
2019-04-28T18:38:55.350Z,22.47
2019-04-28T18:41:41.267Z,22.49
2019-04-28T18:44:14.039Z,22.55
2019-04-28T18:46:42.009Z,22.56
2019-04-28T18:49:09.904Z,22.60
2019-04-28T18:51:37.804Z,22.69
2019-04-28T18:54:05.679Z,22.66
2019-04-28T18:56:33.684Z,22.70
2019-04-28T18:59:01.578Z,22.75
2019-04-28T19:01:42.580Z,22.79
2019-04-28T19:04:10.485Z,22.78
2019-04-28T19:06:38.472Z,22.78
2019-04-28T19:09:22.899Z,22.82
2019-04-28T19:11:57.730Z,22.83
2019-04-28T19:14:38.345Z,22.84
2019-04-28T19:17:27.971Z,22.85
2019-04-28T19:19:55.838Z,22.85
2019-04-28T19:22:23.718Z,22.89
2019-04-28T19:24:51.708Z,22.88
2019-04-28T19:27:19.488Z,22.91
2019-04-28T19:29:47.366Z,22.91
2019-04-28T19:32:15.364Z,22.92
2019-04-28T19:34:43.242Z,22.94
2019-04-28T19:37:11.116Z,22.96
2019-04-28T19:39:40.854Z,22.97
2019-04-28T19:42:09.055Z,22.97
2019-04-28T19:44:36.928Z,22.98
2019-04-28T19:47:04.896Z,22.99
2019-04-28T19:49:32.694Z,23.01
2019-04-28T19:52:00.489Z,23.01
2019-04-28T19:54:30.320Z,23.03
2019-04-28T19:57:10.711Z,23.04
2019-04-28T19:59:56.754Z,23.03
2019-04-28T20:02:25.426Z,23.03
2019-04-28T20:04:53.180Z,23.05
2019-04-28T20:07:21.058Z,23.06
2019-04-28T20:09:49.052Z,23.07
2019-04-28T20:12:17.041Z,23.11
2019-04-28T20:14:45.186Z,23.09
2019-04-28T20:17:13.175Z,23.12
2019-04-28T20:19:41.539Z,23.15
2019-04-28T20:22:09.634Z,23.23
2019-04-28T20:24:46.943Z,23.27
2019-04-28T20:27:07.298Z,23.23
2019-04-28T20:29:35.288Z,23.21
2019-04-28T20:32:03.342Z,23.22
2019-04-28T20:34:31.145Z,23.23
2019-04-28T20:37:05.270Z,23.23
2019-04-28T20:39:33.246Z,23.23
2019-04-28T20:42:19.040Z,23.27
2019-04-28T20:44:47.757Z,23.29
2019-04-28T20:47:15.815Z,23.31
2019-04-28T20:49:43.772Z,23.30
2019-04-28T20:52:11.672Z,23.29
2019-04-28T20:54:39.578Z,23.33
2019-04-28T20:57:07.671Z,23.27
2019-04-28T20:59:35.624Z,23.27
2019-04-28T21:02:03.734Z,23.23
2019-04-28T21:04:31.905Z,23.24
2019-04-28T21:07:00.029Z,23.21
2019-04-28T21:09:27.980Z,23.21
2019-04-28T21:11:56.098Z,23.21
2019-04-28T21:14:24.336Z,23.21
2019-04-28T21:16:52.611Z,23.21
2019-04-28T21:19:20.678Z,23.19
2019-04-28T21:21:48.739Z,23.17
2019-04-28T21:24:17.143Z,23.18
2019-04-28T21:26:45.361Z,23.21
2019-04-28T21:29:13.340Z,23.19
2019-04-28T21:31:41.158Z,23.17
2019-04-28T21:34:09.012Z,23.18
2019-04-28T21:36:37.024Z,23.20
2019-04-28T21:39:06.346Z,23.21
2019-04-28T21:41:34.358Z,23.24
2019-04-28T21:44:10.978Z,23.21
2019-04-28T21:46:43.420Z,23.22
2019-04-28T21:49:18.985Z,23.23
2019-04-28T21:51:46.938Z,23.19
2019-04-28T21:54:15.069Z,23.22
2019-04-28T21:56:42.978Z,23.22
2019-04-28T21:59:10.896Z,23.21
2019-04-28T22:01:39.159Z,23.24
2019-04-28T22:04:07.153Z,23.22
2019-04-28T22:06:35.219Z,23.26
2019-04-28T22:09:03.266Z,23.24
2019-04-28T22:11:31.281Z,23.23
2019-04-28T22:13:59.280Z,23.22
2019-04-28T22:16:27.181Z,23.24
2019-04-28T22:18:55.038Z,23.23
2019-04-28T22:21:22.909Z,23.22
2019-04-28T22:24:15.956Z,23.22
2019-04-28T22:26:51.336Z,23.23
2019-04-28T22:29:19.349Z,23.28
2019-04-28T22:31:47.128Z,23.26
2019-04-28T22:34:15.015Z,23.24
2019-04-28T22:36:43.589Z,23.25
2019-04-28T22:39:12.050Z,23.25
2019-04-28T22:41:40.020Z,23.23
2019-04-28T22:44:08.043Z,23.28
2019-04-28T22:46:36.027Z,23.24
2019-04-28T22:49:05.443Z,22.74
2019-04-28T22:51:33.472Z,23.28
2019-04-28T22:54:04.098Z,23.26
2019-04-28T22:56:35.262Z,23.27
2019-04-28T22:59:08.410Z,23.24
2019-04-28T23:01:39.597Z,23.27
2019-04-28T23:04:30.331Z,23.28
2019-04-28T23:06:58.622Z,23.24
2019-04-28T23:09:26.438Z,23.24
2019-04-28T23:11:54.612Z,23.26
2019-04-28T23:14:22.676Z,23.25
2019-04-28T23:16:50.700Z,23.27
2019-04-28T23:19:20.291Z,23.25
2019-04-28T23:21:54.093Z,23.26
2019-04-28T23:24:22.241Z,23.26
2019-04-28T23:26:50.414Z,23.24
2019-04-28T23:29:18.451Z,23.23
2019-04-28T23:31:46.406Z,23.22
2019-04-28T23:34:14.396Z,23.24
2019-04-28T23:36:42.190Z,23.24
2019-04-28T23:39:10.261Z,23.22
2019-04-28T23:41:53.578Z,23.23
2019-04-28T23:44:21.485Z,23.22
2019-04-28T23:46:56.481Z,23.26
2019-04-28T23:49:25.185Z,23.26
2019-04-28T23:52:12.197Z,23.22
2019-04-28T23:54:41.830Z,23.26
2019-04-28T23:57:09.752Z,23.22
2019-04-28T23:59:37.796Z,23.23
